createdAt,value
2023-04-03T00:00:29.650Z,12.38
2023-04-03T00:01:33.133Z,12.39
2023-04-03T00:02:35.215Z,12.38
2023-04-03T00:03:38.465Z,12.38
2023-04-03T00:04:40.528Z,12.39
2023-04-03T00:05:43.200Z,12.37
2023-04-03T00:06:49.548Z,12.39
2023-04-03T00:07:51.502Z,12.38
2023-04-03T00:08:56.326Z,12.38
2023-04-03T00:09:58.969Z,12.37
2023-04-03T00:11:01.373Z,12.37
2023-04-03T00:12:03.495Z,12.37
2023-04-03T00:13:05.436Z,12.37
2023-04-03T00:14:07.928Z,12.36
2023-04-03T00:15:10.351Z,12.35
2023-04-03T00:16:17.438Z,12.36
2023-04-03T00:17:23.742Z,12.36
2023-04-03T00:18:25.741Z,12.37
2023-04-03T00:19:29.151Z,12.36
2023-04-03T00:20:35.061Z,12.38
2023-04-03T00:21:39.284Z,12.38
2023-04-03T00:22:41.305Z,12.38
2023-04-03T00:23:45.860Z,12.36
2023-04-03T00:24:47.787Z,12.37
2023-04-03T00:25:52.261Z,12.37
2023-04-03T00:26:54.678Z,12.37
2023-04-03T00:28:00.445Z,12.37
2023-04-03T00:29:02.999Z,12.38
2023-04-03T00:30:11.478Z,12.38
2023-04-03T00:31:17.056Z,12.39
2023-04-03T00:32:19.413Z,12.39
2023-04-03T00:33:22.946Z,12.39
2023-04-03T00:34:25.563Z,12.37
2023-04-03T00:35:29.884Z,12.38
2023-04-03T00:36:33.859Z,12.37
2023-04-03T00:37:36.069Z,12.38
2023-04-03T00:38:38.019Z,12.39
2023-04-03T00:39:40.103Z,12.40
2023-04-03T00:40:44.821Z,12.39
2023-04-03T00:41:46.797Z,12.39
2023-04-03T00:42:51.659Z,12.40
2023-04-03T00:43:54.337Z,12.40
2023-04-03T00:45:00.121Z,12.40
2023-04-03T00:46:08.170Z,12.39
2023-04-03T00:47:15.085Z,12.39
2023-04-03T00:48:20.650Z,12.39
2023-04-03T00:49:22.751Z,12.39
2023-04-03T00:50:25.208Z,12.39
2023-04-03T00:51:27.170Z,12.40
2023-04-03T00:52:31.104Z,12.40
2023-04-03T00:53:40.227Z,12.39
2023-04-03T00:54:42.194Z,12.40
2023-04-03T00:55:45.256Z,12.41
2023-04-03T00:56:50.565Z,12.42
2023-04-03T00:57:53.339Z,12.41
2023-04-03T00:59:00.212Z,12.40
2023-04-03T01:01:18.295Z,12.51
2023-04-03T01:02:21.357Z,12.41
2023-04-03T01:03:24.161Z,12.41
2023-04-03T01:04:35.281Z,12.40
2023-04-03T01:05:40.772Z,12.41
2023-04-03T01:06:43.216Z,12.41
2023-04-03T01:07:53.870Z,12.42
2023-04-03T01:08:59.125Z,12.43
2023-04-03T01:10:05.608Z,12.43
2023-04-03T01:11:07.717Z,12.44
2023-04-03T01:12:28.499Z,12.43
2023-04-03T01:13:32.557Z,12.43
2023-04-03T01:14:38.098Z,12.43
2023-04-03T01:15:40.253Z,12.43
2023-04-03T01:16:42.869Z,12.43
2023-04-03T01:17:48.415Z,12.43
2023-04-03T01:18:50.965Z,12.42
2023-04-03T01:21:32.515Z,12.53
2023-04-03T01:22:51.761Z,12.43
2023-04-03T01:24:07.609Z,12.43
2023-04-03T01:25:12.618Z,12.43
2023-04-03T01:26:14.961Z,12.43
2023-04-03T01:27:17.795Z,12.43
2023-04-03T01:29:35.600Z,12.53
2023-04-03T01:30:50.436Z,12.41
2023-04-03T01:31:56.279Z,12.42
2023-04-03T01:33:00.387Z,12.41
2023-04-03T01:34:03.128Z,12.42
2023-04-03T01:35:08.441Z,12.42
2023-04-03T01:36:15.307Z,12.43
2023-04-03T01:37:17.369Z,12.42
2023-04-03T01:38:20.740Z,12.42
2023-04-03T01:39:23.856Z,12.43
2023-04-03T01:40:26.855Z,12.44
2023-04-03T01:41:29.186Z,12.44
2023-04-03T01:42:34.434Z,12.43
2023-04-03T01:43:37.567Z,12.45
2023-04-03T01:44:40.012Z,12.47
2023-04-03T01:45:42.096Z,12.48
2023-04-03T01:46:46.154Z,12.47
2023-04-03T01:47:48.297Z,12.48
2023-04-03T01:48:51.630Z,12.47
2023-04-03T01:49:53.631Z,12.45
2023-04-03T01:50:56.317Z,12.45
2023-04-03T01:51:58.368Z,12.43
2023-04-03T01:53:00.433Z,12.43
2023-04-03T01:54:03.781Z,12.43
2023-04-03T01:55:08.333Z,12.42
2023-04-03T01:56:12.158Z,12.43
2023-04-03T01:57:14.446Z,12.43
2023-04-03T01:58:17.200Z,12.42
2023-04-03T01:59:22.263Z,12.43
2023-04-03T02:00:24.697Z,12.43
2023-04-03T02:01:27.087Z,12.44
2023-04-03T02:02:29.767Z,12.43
2023-04-03T02:03:32.107Z,12.44
2023-04-03T02:04:36.956Z,12.43
2023-04-03T02:05:39.695Z,12.42
2023-04-03T02:06:44.242Z,12.42
2023-04-03T02:07:49.778Z,12.44
2023-04-03T02:08:51.893Z,12.44
2023-04-03T02:09:55.935Z,12.44
2023-04-03T02:11:01.508Z,12.44
2023-04-03T02:12:04.847Z,12.45
2023-04-03T02:13:07.769Z,12.43
2023-04-03T02:14:15.873Z,12.43
2023-04-03T02:15:18.344Z,12.43
2023-04-03T02:16:20.956Z,12.44
2023-04-03T02:17:25.012Z,12.44
2023-04-03T02:18:26.945Z,12.44
2023-04-03T02:19:30.640Z,12.43
2023-04-03T02:20:33.725Z,12.43
2023-04-03T02:21:35.827Z,12.42
2023-04-03T02:22:37.889Z,12.42
2023-04-03T02:23:39.847Z,12.43
2023-04-03T02:24:42.304Z,12.42
2023-04-03T02:25:47.166Z,12.43
2023-04-03T02:26:49.450Z,12.45
2023-04-03T02:27:53.329Z,12.48
2023-04-03T02:28:55.896Z,12.51
2023-04-03T02:29:59.463Z,12.56
2023-04-03T02:31:01.917Z,12.59
2023-04-03T02:32:05.401Z,12.63
2023-04-03T02:33:08.248Z,12.67
2023-04-03T02:34:11.191Z,12.71
2023-04-03T02:35:15.645Z,12.77
2023-04-03T02:36:18.137Z,12.80
2023-04-03T02:37:22.012Z,12.85
2023-04-03T02:38:24.857Z,12.89
2023-04-03T02:39:27.942Z,12.92
2023-04-03T02:40:30.701Z,12.95
2023-04-03T02:41:32.753Z,12.99
2023-04-03T02:42:34.841Z,13.02
2023-04-03T02:43:38.778Z,13.06
2023-04-03T02:44:41.498Z,13.09
2023-04-03T02:45:44.868Z,13.11
2023-04-03T02:46:47.207Z,13.13
2023-04-03T02:47:49.275Z,13.16
2023-04-03T02:48:51.305Z,13.16
2023-04-03T02:49:53.852Z,13.19
2023-04-03T02:50:55.996Z,13.21
2023-04-03T02:51:58.045Z,13.22
2023-04-03T02:53:00.104Z,13.23
2023-04-03T02:54:02.472Z,13.26
2023-04-03T02:56:22.936Z,13.39
2023-04-03T02:57:25.021Z,13.32
2023-04-03T02:58:28.186Z,13.33
2023-04-03T02:59:30.512Z,13.33
2023-04-03T03:00:32.653Z,13.32
2023-04-03T03:01:35.651Z,13.32
2023-04-03T03:02:37.928Z,13.29
2023-04-03T03:03:39.845Z,13.26
2023-04-03T03:04:41.761Z,13.24
2023-04-03T03:05:43.871Z,13.20
2023-04-03T03:06:46.218Z,13.17
2023-04-03T03:07:48.350Z,13.14
2023-04-03T03:08:50.407Z,13.11
2023-04-03T03:09:52.484Z,13.11
2023-04-03T03:10:54.730Z,13.08
2023-04-03T03:11:57.735Z,13.07
2023-04-03T03:12:59.840Z,13.03
2023-04-03T03:14:02.250Z,13.02
2023-04-03T03:15:05.579Z,13.00
2023-04-03T03:16:08.766Z,12.97
2023-04-03T03:17:10.906Z,12.96
2023-04-03T03:18:12.958Z,12.95
2023-04-03T03:19:15.030Z,12.94
2023-04-03T03:20:17.410Z,12.94
2023-04-03T03:21:20.871Z,12.91
2023-04-03T03:22:22.797Z,12.90
2023-04-03T03:23:25.852Z,12.88
2023-04-03T03:24:27.844Z,12.86
2023-04-03T03:25:29.804Z,12.86
2023-04-03T03:26:32.042Z,12.85
2023-04-03T03:27:34.130Z,12.84
2023-04-03T03:28:36.788Z,12.82
2023-04-03T03:29:38.747Z,12.82
2023-04-03T03:30:41.225Z,12.80
2023-04-03T03:31:43.288Z,12.79
2023-04-03T03:32:45.534Z,12.77
2023-04-03T03:33:47.571Z,12.74
2023-04-03T03:34:49.901Z,12.74
2023-04-03T03:35:52.965Z,12.73
2023-04-03T03:36:54.925Z,12.73
2023-04-03T03:37:56.988Z,12.72
2023-04-03T03:38:59.148Z,12.71
2023-04-03T03:40:01.753Z,12.71
2023-04-03T03:41:04.732Z,12.70
2023-04-03T03:42:07.894Z,12.69
2023-04-03T03:43:09.945Z,12.68
2023-04-03T03:44:12.632Z,12.68
2023-04-03T03:45:16.039Z,12.67
2023-04-03T03:46:18.423Z,12.67
2023-04-03T03:47:20.792Z,12.66
2023-04-03T03:48:22.966Z,12.66
2023-04-03T03:49:25.196Z,12.65
2023-04-03T03:50:28.207Z,12.65
2023-04-03T03:51:30.572Z,12.65
2023-04-03T03:52:33.230Z,12.64
2023-04-03T03:53:35.759Z,12.63
2023-04-03T03:54:39.850Z,12.64
2023-04-03T03:55:42.300Z,12.63
2023-04-03T03:56:45.189Z,12.63
2023-04-03T03:57:47.601Z,12.62
2023-04-03T03:58:49.874Z,12.62
2023-04-03T03:59:52.328Z,12.63
2023-04-03T04:00:54.892Z,12.64
2023-04-03T04:01:57.294Z,12.64
2023-04-03T04:02:59.751Z,12.64
2023-04-03T04:04:02.439Z,12.65
2023-04-03T04:05:07.263Z,12.64
2023-04-03T04:06:10.178Z,12.63
2023-04-03T04:07:12.780Z,12.63
2023-04-03T04:08:15.779Z,12.63
2023-04-03T04:09:18.752Z,12.63
2023-04-03T04:10:21.797Z,12.63
2023-04-03T04:11:24.104Z,12.62
2023-04-03T04:12:26.765Z,12.63
2023-04-03T04:13:29.084Z,12.62
2023-04-03T04:14:31.435Z,12.63
2023-04-03T04:15:33.777Z,12.64
2023-04-03T04:16:36.445Z,12.64
2023-04-03T04:17:40.458Z,12.63
2023-04-03T04:18:44.311Z,12.63
2023-04-03T04:19:46.674Z,12.61
2023-04-03T04:20:49.246Z,12.61
2023-04-03T04:21:53.389Z,12.60
2023-04-03T04:22:55.721Z,12.60
2023-04-03T04:23:58.185Z,12.60
2023-04-03T04:25:00.645Z,12.59
2023-04-03T04:26:02.720Z,12.59
2023-04-03T04:27:06.617Z,12.59
2023-04-03T04:28:09.514Z,12.57
2023-04-03T04:29:13.049Z,12.57
2023-04-03T04:30:15.257Z,12.56
2023-04-03T04:31:17.581Z,12.59
2023-04-03T04:32:19.886Z,12.59
2023-04-03T04:33:21.982Z,12.59
2023-04-03T04:34:24.020Z,12.60
2023-04-03T04:35:26.505Z,12.60
2023-04-03T04:36:28.652Z,12.60
2023-04-03T04:37:30.809Z,12.59
2023-04-03T04:38:34.062Z,12.60
2023-04-03T04:39:36.237Z,12.60
2023-04-03T04:40:39.484Z,12.59
2023-04-03T04:41:41.760Z,12.59
2023-04-03T04:42:44.111Z,12.58
2023-04-03T04:43:47.101Z,12.59
2023-04-03T04:44:49.547Z,12.58
2023-04-03T04:46:06.547Z,12.58
2023-04-03T04:47:10.970Z,12.59
2023-04-03T04:48:13.049Z,12.60
2023-04-03T04:49:15.135Z,12.61
2023-04-03T04:50:17.412Z,12.59
2023-04-03T04:51:20.139Z,12.59
2023-04-03T04:52:22.302Z,12.59
2023-04-03T04:53:24.635Z,12.61
2023-04-03T04:54:26.696Z,12.60
2023-04-03T04:55:29.151Z,12.61
2023-04-03T04:56:31.942Z,12.61
2023-04-03T04:57:34.510Z,12.61
2023-04-03T04:58:37.798Z,12.61
2023-04-03T04:59:40.651Z,12.60
2023-04-03T05:00:44.465Z,12.60
2023-04-03T05:01:47.179Z,12.60
2023-04-03T05:02:51.156Z,12.60
2023-04-03T05:03:55.044Z,12.60
2023-04-03T05:04:57.741Z,12.60
2023-04-03T05:06:02.055Z,12.61
2023-04-03T05:07:05.814Z,12.61
2023-04-03T05:08:09.742Z,12.61
2023-04-03T05:09:13.416Z,12.61
2023-04-03T05:10:18.112Z,12.62
2023-04-03T05:11:21.278Z,12.63
2023-04-03T05:12:26.277Z,12.62
2023-04-03T05:13:30.500Z,12.62
2023-04-03T05:14:33.099Z,12.62
2023-04-03T05:15:37.093Z,12.62
2023-04-03T05:16:39.873Z,12.62
2023-04-03T05:17:43.459Z,12.62
2023-04-03T05:18:48.504Z,12.61
2023-04-03T05:19:53.406Z,12.63
2023-04-03T05:20:56.406Z,12.62
2023-04-03T05:22:02.508Z,12.62
2023-04-03T05:23:05.400Z,12.62
2023-04-03T05:24:09.332Z,12.62
2023-04-03T05:25:13.266Z,12.62
2023-04-03T05:26:18.693Z,12.63
2023-04-03T05:27:22.404Z,12.63
2023-04-03T05:28:26.286Z,12.63
2023-04-03T05:29:28.549Z,12.62
2023-04-03T05:30:30.889Z,12.62
2023-04-03T05:31:32.989Z,12.63
2023-04-03T05:32:35.729Z,12.63
2023-04-03T05:33:39.877Z,12.62
2023-04-03T05:34:44.170Z,12.65
2023-04-03T05:35:46.255Z,12.65
2023-04-03T05:36:50.782Z,12.65
2023-04-03T05:37:54.384Z,12.65
2023-04-03T05:38:56.744Z,12.66
2023-04-03T05:39:59.009Z,12.66
2023-04-03T05:41:01.073Z,12.66
2023-04-03T05:42:03.967Z,12.66
2023-04-03T05:43:06.381Z,12.66
2023-04-03T05:44:10.735Z,12.65
2023-04-03T05:45:13.528Z,12.65
2023-04-03T05:46:17.783Z,12.65
2023-04-03T05:47:20.923Z,12.65
2023-04-03T05:48:23.380Z,12.64
2023-04-03T05:49:25.737Z,12.65
2023-04-03T05:50:28.221Z,12.64
2023-04-03T05:51:34.285Z,12.65
2023-04-03T05:52:40.595Z,12.65
2023-04-03T05:53:42.773Z,12.65
2023-04-03T05:54:45.190Z,12.66
2023-04-03T05:55:49.584Z,12.65
2023-04-03T05:56:52.379Z,12.65
2023-04-03T05:57:54.863Z,12.67
2023-04-03T05:58:57.685Z,12.68
2023-04-03T06:00:01.266Z,12.69
2023-04-03T06:01:04.835Z,12.69
2023-04-03T06:02:07.311Z,12.70
2023-04-03T06:03:09.980Z,12.71
2023-04-03T06:04:12.691Z,12.71
2023-04-03T06:05:15.488Z,12.72
2023-04-03T06:06:17.963Z,12.72
2023-04-03T06:07:22.442Z,12.72
2023-04-03T06:08:25.250Z,12.72
2023-04-03T06:09:28.011Z,12.72
2023-04-03T06:10:30.243Z,12.72
2023-04-03T06:11:32.707Z,12.75
2023-04-03T06:12:36.059Z,12.75
2023-04-03T06:13:38.619Z,12.75
2023-04-03T06:14:41.811Z,12.74
2023-04-03T06:15:44.134Z,12.75
2023-04-03T06:16:47.167Z,12.75
2023-04-03T06:17:50.426Z,12.77
2023-04-03T06:18:52.797Z,12.75
2023-04-03T06:19:54.836Z,12.75
2023-04-03T06:20:57.434Z,12.75
2023-04-03T06:21:59.531Z,12.75
2023-04-03T06:23:05.775Z,12.75
2023-04-03T06:24:10.432Z,12.76
2023-04-03T06:25:14.448Z,12.77
2023-04-03T06:26:19.997Z,12.78
2023-04-03T06:27:25.541Z,12.78
2023-04-03T06:28:30.346Z,12.79
2023-04-03T06:29:33.154Z,12.79
2023-04-03T06:30:39.521Z,12.79
2023-04-03T06:31:43.876Z,12.79
2023-04-03T06:32:47.231Z,12.79
2023-04-03T06:33:51.906Z,12.80
2023-04-03T06:34:55.746Z,12.80
2023-04-03T06:35:58.812Z,12.80
2023-04-03T06:37:01.014Z,12.80
2023-04-03T06:38:04.911Z,12.79
2023-04-03T06:39:07.069Z,12.79
2023-04-03T06:41:28.225Z,12.90
2023-04-03T06:42:33.169Z,12.81
2023-04-03T06:43:41.773Z,12.82
2023-04-03T06:44:45.467Z,12.83
2023-04-03T06:45:48.561Z,12.84
2023-04-03T06:46:51.244Z,12.84
2023-04-03T06:47:53.159Z,12.84
2023-04-03T06:48:55.355Z,12.86
2023-04-03T06:49:57.244Z,12.87
2023-04-03T06:50:59.112Z,12.86
2023-04-03T06:52:02.807Z,12.87
2023-04-03T06:53:04.964Z,12.86
2023-04-03T06:54:07.474Z,12.87
2023-04-03T06:55:10.457Z,12.87
2023-04-03T06:56:12.555Z,12.88
2023-04-03T06:57:14.530Z,12.88
2023-04-03T06:58:17.699Z,12.88
2023-04-03T06:59:19.665Z,12.89
2023-04-03T07:00:24.761Z,12.90
2023-04-03T07:01:28.182Z,12.90
2023-04-03T07:02:30.423Z,12.91
2023-04-03T07:03:33.439Z,12.92
2023-04-03T07:04:37.779Z,12.92
2023-04-03T07:05:41.342Z,12.93
2023-04-03T07:06:44.021Z,12.93
2023-04-03T07:07:46.174Z,12.93
2023-04-03T07:08:48.284Z,12.94
2023-04-03T07:09:50.236Z,12.94
2023-04-03T07:10:52.299Z,12.96
2023-04-03T07:11:54.450Z,12.96
2023-04-03T07:12:56.749Z,12.96
2023-04-03T07:13:58.685Z,12.97
2023-04-03T07:15:02.820Z,12.98
2023-04-03T07:16:06.256Z,12.99
2023-04-03T07:17:08.433Z,12.99
2023-04-03T07:18:12.384Z,12.99
2023-04-03T07:19:14.634Z,13.00
2023-04-03T07:20:18.235Z,13.01
2023-04-03T07:21:20.260Z,13.01
2023-04-03T07:22:22.918Z,13.03
2023-04-03T07:23:25.449Z,13.03
2023-04-03T07:24:27.404Z,13.05
2023-04-03T07:25:29.361Z,13.06
2023-04-03T07:26:32.016Z,13.08
2023-04-03T07:27:34.372Z,13.08
2023-04-03T07:28:36.326Z,13.08
2023-04-03T07:29:39.370Z,13.08
2023-04-03T07:30:52.489Z,13.09
2023-04-03T07:31:55.003Z,13.10
2023-04-03T07:32:57.038Z,13.12
2023-04-03T07:33:59.717Z,13.12
2023-04-03T07:35:02.758Z,13.13
2023-04-03T07:36:06.975Z,13.13
2023-04-03T07:37:09.145Z,13.14
2023-04-03T07:38:11.725Z,13.15
2023-04-03T07:39:13.735Z,13.16
2023-04-03T07:40:17.347Z,13.16
2023-04-03T07:41:20.255Z,13.16
2023-04-03T07:42:22.327Z,13.17
2023-04-03T07:43:24.263Z,13.17
2023-04-03T07:44:26.258Z,13.17
2023-04-03T07:45:28.915Z,13.18
2023-04-03T07:46:30.847Z,13.19
2023-04-03T07:47:32.882Z,13.20
2023-04-03T07:48:35.348Z,13.21
2023-04-03T07:49:37.319Z,13.24
2023-04-03T07:50:42.513Z,13.24
2023-04-03T07:51:45.427Z,13.25
2023-04-03T07:52:47.958Z,13.25
2023-04-03T07:53:50.102Z,13.27
2023-04-03T07:54:52.045Z,13.27
2023-04-03T07:55:54.124Z,13.29
2023-04-03T07:56:56.298Z,13.28
2023-04-03T07:57:58.339Z,13.27
2023-04-03T07:59:00.793Z,13.30
2023-04-03T08:00:05.917Z,13.30
2023-04-03T08:01:09.778Z,13.30
2023-04-03T08:02:12.239Z,13.31
2023-04-03T08:03:14.838Z,13.32
2023-04-03T08:04:17.163Z,13.35
2023-04-03T08:05:20.017Z,13.36
2023-04-03T08:06:33.014Z,13.38
2023-04-03T08:07:28.214Z,13.38
2023-04-03T08:08:31.430Z,13.40
2023-04-03T08:09:33.451Z,13.40
2023-04-03T08:10:35.598Z,13.42
2023-04-03T08:11:40.753Z,13.43
2023-04-03T08:12:42.720Z,13.43
2023-04-03T08:13:45.016Z,13.45
2023-04-03T08:14:47.604Z,13.45
2023-04-03T08:15:49.571Z,13.46
2023-04-03T08:16:51.681Z,13.47
2023-04-03T08:17:55.553Z,13.48
2023-04-03T08:18:57.685Z,13.50
2023-04-03T08:19:59.651Z,13.52
2023-04-03T08:21:02.184Z,13.54
2023-04-03T08:22:04.398Z,13.55
2023-04-03T08:23:07.575Z,13.57
2023-04-03T08:24:10.105Z,13.58
2023-04-03T08:25:12.294Z,13.60
2023-04-03T08:26:15.907Z,13.62
2023-04-03T08:27:18.956Z,13.62
2023-04-03T08:28:20.946Z,13.64
2023-04-03T08:29:23.031Z,13.65
2023-04-03T08:30:24.986Z,13.66
2023-04-03T08:31:27.598Z,13.67
2023-04-03T08:32:29.662Z,13.69
2023-04-03T08:33:32.677Z,13.69
2023-04-03T08:34:34.697Z,13.71
2023-04-03T08:35:41.135Z,13.71
2023-04-03T08:36:43.688Z,13.72
2023-04-03T08:37:46.144Z,13.73
2023-04-03T08:38:49.622Z,13.74
2023-04-03T08:39:52.206Z,13.74
2023-04-03T08:42:24.721Z,13.86
2023-04-03T08:43:36.637Z,13.76
2023-04-03T08:44:42.427Z,13.77
2023-04-03T08:45:51.513Z,13.77
2023-04-03T08:47:03.838Z,13.78
2023-04-03T08:48:08.641Z,13.79
2023-04-03T08:50:38.592Z,13.94
2023-04-03T08:51:41.130Z,13.84
2023-04-03T08:54:01.287Z,13.98
2023-04-03T08:55:33.077Z,13.90
2023-04-03T08:56:35.200Z,13.91
2023-04-03T08:57:40.069Z,13.93
2023-04-03T08:58:48.525Z,13.94
2023-04-03T08:59:52.106Z,13.95
2023-04-03T09:01:04.098Z,13.96
2023-04-03T09:03:35.206Z,14.10
2023-04-03T09:04:37.460Z,13.99
2023-04-03T09:05:46.420Z,13.99
2023-04-03T09:08:02.985Z,14.12
2023-04-03T09:10:29.557Z,14.02
2023-04-03T09:11:35.381Z,14.03
2023-04-03T09:12:43.814Z,14.03
2023-04-03T09:14:09.188Z,14.04
2023-04-03T09:16:54.322Z,14.20
2023-04-03T09:18:24.016Z,14.11
2023-04-03T09:19:36.700Z,14.14
2023-04-03T09:22:16.369Z,14.27
2023-04-03T09:24:47.829Z,14.30
2023-04-03T09:25:50.995Z,14.23
2023-04-03T09:28:14.884Z,14.37
2023-04-03T09:29:19.472Z,14.28
2023-04-03T09:30:24.899Z,14.29
2023-04-03T09:31:29.629Z,14.32
2023-04-03T09:32:37.265Z,14.33
2023-04-03T09:33:39.757Z,14.35
2023-04-03T09:34:42.423Z,14.36
2023-04-03T09:35:48.598Z,14.37
2023-04-03T09:36:55.641Z,14.38
2023-04-03T09:38:13.685Z,14.40
2023-04-03T09:40:40.323Z,14.54
2023-04-03T09:41:45.273Z,14.44
2023-04-03T09:42:55.457Z,14.43
2023-04-03T09:43:56.782Z,14.44
2023-04-03T09:45:01.699Z,14.45
2023-04-03T09:47:40.936Z,14.56
2023-04-03T09:50:23.376Z,14.54
2023-04-03T09:51:28.337Z,14.42
2023-04-03T09:53:45.480Z,14.42
2023-04-03T09:54:51.441Z,14.42
2023-04-03T09:55:53.965Z,14.42
2023-04-03T09:56:58.206Z,14.41
2023-04-03T09:58:03.104Z,14.41
2023-04-03T09:59:09.451Z,14.41
2023-04-03T10:00:27.777Z,14.39
2023-04-03T10:01:34.180Z,14.40
2023-04-03T10:02:41.303Z,14.39
2023-04-03T10:03:43.384Z,14.38
2023-04-03T10:04:48.793Z,14.37
2023-04-03T10:05:50.055Z,14.37
2023-04-03T10:06:54.016Z,14.35
2023-04-03T10:08:17.631Z,14.35
2023-04-03T10:09:27.956Z,14.36
2023-04-03T10:10:31.473Z,14.35
2023-04-03T10:11:35.510Z,14.34
2023-04-03T10:12:37.527Z,14.33
2023-04-03T10:13:51.140Z,14.33
2023-04-03T10:14:59.116Z,14.32
2023-04-03T10:16:18.240Z,14.32
2023-04-03T10:17:43.302Z,14.33
2023-04-03T10:19:02.711Z,14.33
2023-04-03T10:20:09.235Z,14.33
2023-04-03T10:23:13.610Z,14.45
2023-04-03T10:25:56.351Z,14.47
2023-04-03T10:32:06.605Z,14.57
2023-04-03T10:33:40.714Z,14.48
2023-04-03T10:34:51.667Z,14.51
2023-04-03T10:36:13.996Z,14.54
2023-04-03T10:37:27.963Z,14.55
2023-04-03T10:39:05.063Z,14.57
2023-04-03T10:40:36.325Z,14.57
2023-04-03T10:42:15.160Z,14.57
2023-04-03T10:45:27.842Z,14.67
2023-04-03T10:46:41.686Z,14.57
2023-04-03T10:48:01.908Z,14.56
2023-04-03T10:49:18.909Z,14.56
2023-04-03T10:50:28.332Z,14.57
2023-04-03T10:51:34.647Z,14.56
2023-04-03T10:52:49.135Z,14.55
2023-04-03T10:54:09.683Z,14.56
2023-04-03T10:56:57.954Z,14.67
2023-04-03T10:57:56.254Z,14.56
2023-04-03T10:59:14.743Z,14.57
2023-04-03T11:01:35.058Z,14.66
2023-04-03T11:04:05.600Z,14.66
2023-04-03T11:07:54.212Z,14.67
2023-04-03T11:10:23.503Z,14.67
2023-04-03T11:11:35.838Z,14.58
2023-04-03T11:14:14.230Z,14.68
2023-04-03T11:15:17.555Z,14.59
2023-04-03T11:16:24.692Z,14.58
2023-04-03T11:17:36.493Z,14.57
2023-04-03T11:20:12.976Z,14.67
2023-04-03T11:21:18.812Z,14.58
2023-04-03T11:22:29.469Z,14.58
2023-04-03T11:23:48.282Z,14.58
2023-04-03T11:24:41.917Z,14.60
2023-04-03T11:25:45.686Z,14.60
2023-04-03T11:26:47.940Z,14.62
2023-04-03T11:28:05.474Z,14.62
2023-04-03T11:29:15.721Z,14.62
2023-04-03T11:30:21.399Z,14.63
2023-04-03T11:33:16.543Z,14.73
2023-04-03T11:34:25.616Z,14.62
2023-04-03T11:35:28.134Z,14.62
2023-04-03T11:36:35.810Z,14.62
2023-04-03T11:38:49.746Z,14.73
2023-04-03T11:39:58.314Z,14.64
2023-04-03T11:41:00.888Z,14.65
2023-04-03T11:43:49.551Z,14.76
2023-04-03T11:44:52.073Z,14.68
2023-04-03T11:45:58.674Z,14.67
2023-04-03T11:47:02.065Z,14.68
2023-04-03T11:49:53.707Z,14.77
2023-04-03T11:50:57.035Z,14.68
2023-04-03T11:51:59.052Z,14.68
2023-04-03T11:53:14.007Z,14.69
2023-04-03T11:54:45.111Z,14.68
2023-04-03T11:55:50.054Z,14.68
2023-04-03T11:56:52.485Z,14.68
2023-04-03T11:58:03.784Z,14.68
2023-04-03T11:59:17.566Z,14.67
2023-04-03T12:00:45.876Z,14.68
2023-04-03T12:01:51.523Z,14.66
2023-04-03T12:02:55.521Z,14.66
2023-04-03T12:04:01.974Z,14.66
2023-04-03T12:05:29.690Z,14.66
2023-04-03T12:06:38.695Z,14.64
2023-04-03T12:07:40.896Z,14.64
2023-04-03T12:08:47.557Z,14.64
2023-04-03T12:09:55.336Z,14.63
2023-04-03T12:11:13.521Z,14.64
2023-04-03T12:13:51.274Z,14.73
2023-04-03T12:14:53.315Z,14.64
2023-04-03T12:17:12.325Z,14.73
2023-04-03T12:18:51.869Z,14.63
2023-04-03T12:19:57.597Z,14.63
2023-04-03T12:21:03.765Z,14.64
2023-04-03T12:22:08.708Z,14.64
2023-04-03T12:23:34.724Z,14.64
2023-04-03T12:24:38.912Z,14.64
2023-04-03T12:25:44.676Z,14.64
2023-04-03T12:27:00.954Z,14.66
2023-04-03T12:28:05.645Z,14.67
2023-04-03T12:29:26.528Z,14.67
2023-04-03T12:30:30.923Z,14.67
2023-04-03T12:31:42.012Z,14.66
2023-04-03T12:32:49.376Z,14.66
2023-04-03T12:35:52.683Z,14.76
2023-04-03T12:37:03.852Z,14.66
2023-04-03T12:38:28.014Z,14.67
2023-04-03T12:39:59.686Z,14.68
2023-04-03T12:41:24.661Z,14.67
2023-04-03T12:43:57.918Z,14.75
2023-04-03T12:45:15.292Z,14.65
2023-04-03T12:46:24.486Z,14.64
2023-04-03T12:47:35.592Z,14.64
2023-04-03T12:48:56.899Z,14.63
2023-04-03T12:50:02.248Z,14.62
2023-04-03T12:52:40.906Z,14.69
2023-04-03T12:53:43.256Z,14.59
2023-04-03T12:54:47.841Z,14.58
2023-04-03T12:57:25.212Z,14.68
2023-04-03T12:58:28.919Z,14.56
2023-04-03T12:59:31.471Z,14.56
2023-04-03T13:00:35.592Z,14.56
2023-04-03T13:01:37.645Z,14.56
2023-04-03T13:02:40.282Z,14.56
2023-04-03T13:03:47.931Z,14.55
2023-04-03T13:04:52.034Z,14.55
2023-04-03T13:07:10.340Z,14.64
2023-04-03T13:08:13.162Z,14.52
2023-04-03T13:09:26.667Z,14.51
2023-04-03T13:10:29.493Z,14.51
2023-04-03T13:11:38.835Z,14.50
2023-04-03T13:12:54.950Z,14.49
2023-04-03T13:15:27.742Z,14.58
2023-04-03T13:16:30.018Z,14.46
2023-04-03T13:17:32.479Z,14.45
2023-04-03T13:18:35.340Z,14.45
2023-04-03T13:19:37.944Z,14.43
2023-04-03T13:20:40.256Z,14.43
2023-04-03T13:21:42.419Z,14.42
2023-04-03T13:22:54.218Z,14.42
2023-04-03T13:25:10.106Z,14.49
2023-04-03T13:26:13.478Z,14.38
2023-04-03T13:27:15.982Z,14.37
2023-04-03T13:28:20.852Z,14.36
2023-04-03T13:29:31.443Z,14.35
2023-04-03T13:30:35.904Z,14.33
2023-04-03T13:31:39.274Z,14.31
2023-04-03T13:32:41.721Z,14.28
2023-04-03T13:35:17.786Z,14.36
2023-04-03T13:37:30.064Z,14.33
2023-04-03T13:38:32.744Z,14.22
2023-04-03T13:39:38.961Z,14.22
2023-04-03T13:42:01.043Z,14.32
2023-04-03T13:44:18.666Z,14.30
2023-04-03T13:45:24.220Z,14.18
2023-04-03T13:46:27.548Z,14.17
2023-04-03T13:47:33.570Z,14.16
2023-04-03T13:48:43.994Z,14.15
2023-04-03T13:50:14.669Z,14.14
2023-04-03T13:51:29.937Z,14.12
2023-04-03T13:52:34.227Z,14.09
2023-04-03T13:53:51.904Z,14.09
2023-04-03T13:57:19.157Z,14.14
2023-04-03T13:58:23.531Z,14.04
2023-04-03T13:59:35.423Z,14.03
2023-04-03T14:00:49.760Z,14.02
2023-04-03T14:01:57.839Z,14.01
2023-04-03T14:03:00.370Z,13.99
2023-04-03T14:04:06.183Z,13.99
2023-04-03T14:05:08.407Z,13.98
2023-04-03T14:06:13.577Z,13.96
2023-04-03T14:07:16.993Z,13.94
2023-04-03T14:08:24.118Z,13.94
2023-04-03T14:09:24.848Z,13.91
2023-04-03T14:10:26.868Z,13.91
2023-04-03T14:11:30.675Z,13.91
2023-04-03T14:12:37.683Z,13.90
2023-04-03T14:13:39.682Z,13.89
2023-04-03T14:14:41.723Z,13.89
2023-04-03T14:15:43.658Z,13.89
2023-04-03T14:16:49.139Z,13.89
2023-04-03T14:17:51.805Z,13.87
2023-04-03T14:18:54.638Z,13.85
2023-04-03T14:19:57.303Z,13.86
2023-04-03T14:20:59.585Z,13.83
2023-04-03T14:22:05.386Z,13.82
2023-04-03T14:23:07.353Z,13.81
2023-04-03T14:24:09.273Z,13.81
2023-04-03T14:25:11.247Z,13.80
2023-04-03T14:26:16.887Z,13.79
2023-04-03T14:27:24.760Z,13.79
2023-04-03T14:28:26.747Z,13.78
2023-04-03T14:29:29.358Z,13.77
2023-04-03T14:30:32.780Z,13.74
2023-04-03T14:31:34.798Z,13.73
2023-04-03T14:32:38.696Z,13.71
2023-04-03T14:33:40.808Z,13.69
2023-04-03T14:34:43.034Z,13.68
2023-04-03T14:35:45.783Z,13.65
2023-04-03T14:36:47.832Z,13.65
2023-04-03T14:37:52.246Z,13.64
2023-04-03T14:38:55.072Z,13.64
2023-04-03T14:39:58.262Z,13.65
2023-04-03T14:41:13.724Z,13.62
2023-04-03T14:42:04.135Z,13.63
2023-04-03T14:43:07.593Z,13.62
2023-04-03T14:44:10.656Z,13.61
2023-04-03T14:45:12.740Z,13.61
2023-04-03T14:46:18.015Z,13.59
2023-04-03T14:47:30.519Z,13.59
2023-04-03T14:48:27.927Z,13.61
2023-04-03T14:49:30.006Z,13.63
2023-04-03T14:50:32.179Z,13.65
2023-04-03T14:52:57.988Z,13.78
2023-04-03T14:54:00.058Z,13.67
2023-04-03T14:55:02.994Z,13.66
2023-04-03T14:59:32.852Z,13.65
2023-04-03T15:02:39.537Z,13.62
2023-04-03T15:03:42.499Z,13.61
2023-04-03T15:04:45.317Z,13.60
2023-04-03T15:05:48.924Z,13.58
2023-04-03T15:06:51.981Z,13.57
2023-04-03T15:07:56.194Z,13.57
2023-04-03T15:08:58.648Z,13.55
2023-04-03T15:13:33.828Z,13.52
2023-04-03T15:14:47.250Z,13.50
2023-04-03T15:19:49.261Z,13.47
2023-04-03T15:20:51.235Z,13.45
2023-04-03T15:21:53.326Z,13.46
2023-04-03T15:22:55.767Z,13.45
2023-04-03T15:23:59.545Z,13.44
2023-04-03T15:26:04.336Z,13.43
2023-04-03T15:27:06.278Z,13.43